San Francisco De Macoris, Dominican Republic
Current Conditions -  °F | °C
As of 7:00 PM on Sunday 21 Dec 2014 (Local Time) from MDST Reporting Station
Scattered Clouds Scattered Clouds  
Wind Chill: 77°   Ceiling: Unl
Heat Index: 78°   Visibility: 6mi
Dew Point: 73°   Wind: 7mph
Humidity: 89%   Direction: 130°SE
Pressure: 30"   Gusts: NA
Location:  19.3°N, 70.25°W
Report Text: MDST 212300Z 13006KT 9999 SCT018 25/23 Q1016 NOSIG
Loading
Personal Weather Stations






























Interactive Weather Map New forecast layout! Learn more

10-Day Weather Forecast

Advertisements
Track Severe Weather on mobile